Time;durP1;ratioP1;P1;durP2;ratioP2;P2;SDS_P1;SDS_P2;PMS_P1;PMS_P2;Temp;Humidity;BMP_temperature;BMP_pressure;BME280_temperature;BME280_humidity;BME280_pressure;Samples;Min_cycle;Max_cycle;Signal;HPM_P1;HPM_P2
2023/10/17 00:01:11;;;;;;;0.00;0.00;;;;;;;;;;5023373;28;20032;-81
2023/10/17 00:03:37;;;;;;;0.00;0.00;;;;;;;;;;5022354;28;20025;-82
2023/10/17 00:06:06;;;;;;;0.00;0.00;;;;;;;;;;5005732;28;20151;-83
2023/10/17 00:08:33;;;;;;;0.00;0.00;;;;;;;;;;5038257;28;20068;-82
2023/10/17 00:11:06;;;;;;;0.00;0.00;;;;;;;;;;5037038;28;20040;-83
2023/10/17 00:13:39;;;;;;;0.00;0.00;;;;;;;;;;5038700;28;20065;-83
2023/10/17 00:16:09;;;;;;;0.00;0.00;;;;;;;;;;5038315;28;20039;-82
2023/10/17 00:18:34;;;;;;;0.00;0.00;;;;;;;;;;5021625;28;20115;-82
2023/10/17 00:24:02;;;;;;;0.00;0.00;;;;;;;;;;5016759;28;20025;-82
2023/10/17 00:26:27;;;;;;;0.00;0.00;;;;;;;;;;5005723;28;20029;-82
2023/10/17 00:28:53;;;;;;;0.00;0.00;;;;;;;;;;5021213;28;20107;-83
2023/10/17 00:31:21;;;;;;;0.00;0.00;;;;;;;;;;5055088;28;20526;-83
2023/10/17 00:33:57;;;;;;;0.00;0.00;;;;;;;;;;5038023;28;20021;-83
2023/10/17 00:36:28;;;;;;;0.00;0.00;;;;;;;;;;5038289;28;20119;-82
2023/10/17 00:38:56;;;;;;;0.00;0.00;;;;;;;;;;5028326;28;20048;-81
2023/10/17 00:44:14;;;;;;;0.00;0.00;;;;;;;;;;5010354;28;20109;-82
2023/10/17 00:46:41;;;;;;;0.00;0.00;;;;;;;;;;5025520;28;20454;-81
2023/10/17 00:49:07;;;;;;;0.00;0.00;;;;;;;;;;5075030;28;20020;-83
2023/10/17 00:51:32;;;;;;;0.00;0.00;;;;;;;;;;5057011;28;20043;-83
2023/10/17 00:54:00;;;;;;;0.00;0.00;;;;;;;;;;5023985;28;20029;-82
2023/10/17 00:56:26;;;;;;;0.00;0.00;;;;;;;;;;5024747;28;20131;-82
2023/10/17 00:58:52;;;;;;;0.00;0.00;;;;;;;;;;5057347;28;20064;-83
2023/10/17 01:01:20;;;;;;;0.00;0.00;;;;;;;;;;5040395;28;20083;-82
2023/10/17 01:03:48;;;;;;;0.00;0.00;;;;;;;;;;5041767;28;20067;-82
2023/10/17 01:08:49;;;;;;;0.00;0.00;;;;;;;;;;5042071;28;20060;-83
2023/10/17 01:11:20;;;;;;;0.00;0.00;;;;;;;;;;5040049;28;20028;-82
2023/10/17 01:13:49;;;;;;;0.00;0.00;;;;;;;;;;5027390;28;20082;-82
2023/10/17 01:16:16;;;;;;;0.00;0.00;;;;;;;;;;5073336;28;20063;-81
2023/10/17 01:18:45;;;;;;;0.00;0.00;;;;;;;;;;5093371;28;20036;-82
2023/10/17 01:21:12;;;;;;;0.00;0.00;;;;;;;;;;5046695;28;20028;-83
2023/10/17 01:23:38;;;;;;;0.00;0.00;;;;;;;;;;5048882;28;20032;-82
2023/10/17 01:26:08;;;;;;;0.00;0.00;;;;;;;;;;5071877;28;20024;-83
2023/10/17 01:28:34;;;;;;;0.00;0.00;;;;;;;;;;5024556;28;20036;-83
2023/10/17 01:31:01;;;;;;;0.00;0.00;;;;;;;;;;5023228;28;20123;-83
2023/10/17 01:33:29;;;;;;;0.00;0.00;;;;;;;;;;5056334;28;20120;-83
2023/10/17 01:35:57;;;;;;;0.00;0.00;;;;;;;;;;5040041;28;20048;-83
2023/10/17 01:38:26;;;;;;;0.00;0.00;;;;;;;;;;5055845;28;20387;-83
2023/10/17 01:40:57;;;;;;;0.00;0.00;;;;;;;;;;5040622;28;20028;-83
2023/10/17 01:43:23;;;;;;;0.00;0.00;;;;;;;;;;5056068;28;20046;-82
2023/10/17 01:45:50;;;;;;;0.00;0.00;;;;;;;;;;5056327;28;20028;-81
2023/10/17 01:48:15;;;;;;;0.00;0.00;;;;;;;;;;5056109;28;20031;-80
2023/10/17 01:50:44;;;;;;;0.00;0.00;;;;;;;;;;5055726;28;20028;-80
2023/10/17 01:53:12;;;;;;;0.00;0.00;;;;;;;;;;5039925;28;20442;-81
2023/10/17 01:55:39;;;;;;;0.00;0.00;;;;;;;;;;5040063;28;20438;-82
2023/10/17 01:58:07;;;;;;;0.00;0.00;;;;;;;;;;5055823;28;20032;-81
2023/10/17 02:02:59;;;;;;;0.00;0.00;;;;;;;;;;5056266;28;20481;-80
2023/10/17 02:05:25;;;;;;;0.00;0.00;;;;;;;;;;5039433;28;20028;-80
2023/10/17 02:07:51;;;;;;;0.00;0.00;;;;;;;;;;5039370;28;20056;-81
2023/10/17 02:10:21;;;;;;;0.00;0.00;;;;;;;;;;5039307;28;20055;-81
2023/10/17 02:12:49;;;;;;;;;;;;;;;;;;5040343;28;20039;-82
2023/10/17 02:15:24;;;;;;;0.00;0.00;;;;;;;;;;5039583;28;19920;-81
2023/10/17 02:17:51;;;;;;;0.00;0.00;;;;;;;;;;5073613;28;20047;-82
2023/10/17 02:20:21;;;;;;;0.00;0.00;;;;;;;;;;5055635;28;20450;-81
2023/10/17 02:22:53;;;;;;;0.00;0.00;;;;;;;;;;5061925;28;20370;-82
2023/10/17 02:25:21;;;;;;;0.00;0.00;;;;;;;;;;5047559;28;20058;-82
2023/10/17 02:27:48;;;;;;;0.00;0.00;;;;;;;;;;5017092;28;20041;-82
2023/10/17 02:30:14;;;;;;;0.00;0.00;;;;;;;;;;5013420;28;20123;-83
2023/10/17 02:32:44;;;;;;;0.00;0.00;;;;;;;;;;5029253;28;20032;-82
2023/10/17 02:35:14;;;;;;;0.00;0.00;;;;;;;;;;5062239;28;20025;-82
2023/10/17 02:37:47;;;;;;;0.00;0.00;;;;;;;;;;5045990;28;20042;-82
2023/10/17 02:40:23;;;;;;;0.00;0.00;;;;;;;;;;5025479;28;20048;-82
2023/10/17 02:42:49;;;;;;;0.00;0.00;;;;;;;;;;5058774;28;20036;-82
2023/10/17 02:45:24;;;;;;;0.00;0.00;;;;;;;;;;5028647;28;20044;-83
2023/10/17 02:47:53;;;;;;;0.00;0.00;;;;;;;;;;5062212;28;20024;-82
2023/10/17 02:52:55;;;;;;;0.00;0.00;;;;;;;;;;5063769;28;20409;-82
2023/10/17 02:55:24;;;;;;;0.00;0.00;;;;;;;;;;5061903;28;20033;-82
2023/10/17 02:57:52;;;;;;;0.00;0.00;;;;;;;;;;5062356;28;20394;-81
2023/10/17 03:00:33;;;;;;;0.00;0.00;;;;;;;;;;5045862;28;20079;-82
2023/10/17 03:02:59;;;;;;;0.00;0.00;;;;;;;;;;5047256;28;20051;-82
2023/10/17 03:05:25;;;;;;;0.00;0.00;;;;;;;;;;5062295;28;20122;-82
2023/10/17 03:07:51;;;;;;;0.00;0.00;;;;;;;;;;5061944;28;20021;-82
2023/10/17 03:10:21;;;;;;;0.00;0.00;;;;;;;;;;5062103;28;20024;-82
2023/10/17 03:12:55;;;;;;;0.00;0.00;;;;;;;;;;5045891;28;20484;-82
2023/10/17 03:15:22;;;;;;;0.00;0.00;;;;;;;;;;5063051;28;20027;-82
2023/10/17 03:17:54;;;;;;;0.00;0.00;;;;;;;;;;5061801;28;20029;-82
2023/10/17 03:20:21;;;;;;;0.00;0.00;;;;;;;;;;5062908;28;20503;-83
2023/10/17 03:22:50;;;;;;;0.00;0.00;;;;;;;;;;5061946;28;20442;-81
2023/10/17 03:25:19;;;;;;;0.00;0.00;;;;;;;;;;5045476;28;20032;-82
2023/10/17 03:27:48;;;;;;;0.00;0.00;;;;;;;;;;5029315;28;20127;-81
2023/10/17 03:30:14;;;;;;;0.00;0.00;;;;;;;;;;5041107;28;20024;-82
2023/10/17 03:35:24;;;;;;;0.00;0.00;;;;;;;;;;5061150;28;20021;-82
2023/10/17 03:37:50;;;;;;;0.00;0.00;;;;;;;;;;5041858;28;20036;-82
2023/10/17 03:40:19;;;;;;;0.00;0.00;;;;;;;;;;5041808;28;20044;-81
2023/10/17 03:42:46;;;;;;;0.00;0.00;;;;;;;;;;5058916;28;20078;-82
2023/10/17 03:45:13;;;;;;;0.00;0.00;;;;;;;;;;5057539;28;20032;-82
2023/10/17 03:47:39;;;;;;;0.00;0.00;;;;;;;;;;5041620;28;20032;-81
2023/10/17 03:50:09;;;;;;;0.00;0.00;;;;;;;;;;5041718;28;20475;-81
2023/10/17 03:52:37;;;;;;;0.00;0.00;;;;;;;;;;5042161;28;20039;-81
2023/10/17 03:55:09;;;;;;;0.00;0.00;;;;;;;;;;5057968;28;20082;-82
2023/10/17 03:57:39;;;;;;;0.00;0.00;;;;;;;;;;5059070;28;20503;-82
2023/10/17 04:00:25;;;;;;;0.00;0.00;;;;;;;;;;5058705;28;20033;-81
2023/10/17 04:02:50;;;;;;;0.00;0.00;;;;;;;;;;5057943;28;20039;-83
2023/10/17 04:05:17;;;;;;;0.00;0.00;;;;;;;;;;5041291;28;20029;-82
2023/10/17 04:07:43;;;;;;;0.00;0.00;;;;;;;;;;5057912;28;20064;-82
2023/10/17 04:10:20;;;;;;;0.00;0.00;;;;;;;;;;5041359;28;20059;-82
2023/10/17 04:12:49;;;;;;;0.00;0.00;;;;;;;;;;5042987;28;20091;-82
2023/10/17 04:15:18;;;;;;;0.00;0.00;;;;;;;;;;5042132;28;20028;-82
2023/10/17 04:17:47;;;;;;;0.00;0.00;;;;;;;;;;5039490;28;20043;-82
2023/10/17 04:20:13;;;;;;;0.00;0.00;;;;;;;;;;5019959;28;20029;-82
2023/10/17 04:22:43;;;;;;;0.00;0.00;;;;;;;;;;5021277;28;20025;-82
2023/10/17 04:25:20;;;;;;;0.00;0.00;;;;;;;;;;5038026;28;20025;-83
2023/10/17 04:27:54;;;;;;;0.00;0.00;;;;;;;;;;5007841;28;20056;-82
2023/10/17 04:30:22;;;;;;;0.00;0.00;;;;;;;;;;5044761;28;20451;-82
2023/10/17 04:32:52;;;;;;;0.00;0.00;;;;;;;;;;5025248;28;20064;-81
2023/10/17 04:35:20;;;;;;;0.00;0.00;;;;;;;;;;5025814;28;20043;-82
2023/10/17 04:38:09;;;;;;;0.00;0.00;;;;;;;;;;5057354;28;20036;-82
2023/10/17 04:40:42;;;;;;;0.00;0.00;;;;;;;;;;5039673;28;20058;-84
2023/10/17 04:45:45;;;;;;;0.00;0.00;;;;;;;;;;5059223;28;20438;-79
2023/10/17 04:48:16;;;;;;;0.22;0.00;;;;;;;;;;5015952;28;20123;-79
2023/10/17 04:50:57;;;;;;;0.00;0.00;;;;;;;;;;5029954;28;20451;-80
2023/10/17 04:53:35;;;;;;;0.00;0.00;;;;;;;;;;5023471;28;20063;-78
2023/10/17 04:58:39;;;;;;;0.00;0.00;;;;;;;;;;5009737;28;20034;-80
2023/10/17 05:03:51;;;;;;;0.00;0.00;;;;;;;;;;5011859;28;20366;-80
2023/10/17 05:06:24;;;;;;;0.00;0.00;;;;;;;;;;5048349;28;20021;-79
2023/10/17 06:18:49;;;;;;;0.00;0.00;;;;;;;;;;5101572;28;20039;-85
2023/10/17 06:21:18;;;;;;;0.10;0.00;;;;;;;;;;5063745;28;20028;-83
2023/10/17 06:34:15;;;;;;;0.00;0.00;;;;;;;;;;5089994;28;20028;-83
2023/10/17 06:36:42;;;;;;;0.00;0.00;;;;;;;;;;5089358;28;20024;-84
2023/10/17 06:39:22;;;;;;;0.00;0.00;;;;;;;;;;5085762;28;20035;-87
2023/10/17 06:41:51;;;;;;;0.00;0.00;;;;;;;;;;5051275;28;20036;-84
2023/10/17 06:44:23;;;;;;;0.00;0.00;;;;;;;;;;5064882;28;20059;-87
2023/10/17 06:46:57;;;;;;;0.00;0.00;;;;;;;;;;5100435;28;20031;-88
2023/10/17 06:54:43;;;;;;;0.00;0.00;;;;;;;;;;5065652;28;20036;-86
2023/10/17 06:57:23;;;;;;;0.00;0.00;;;;;;;;;;5076884;28;20424;-86
2023/10/17 07:00:49;;;;;;;0.00;0.00;;;;;;;;;;5072119;28;20040;-88
2023/10/17 07:02:56;;;;;;;0.00;0.00;;;;;;;;;;5067724;28;20025;-82
2023/10/17 07:05:22;;;;;;;0.00;0.00;;;;;;;;;;5081942;28;20374;-82
2023/10/17 07:07:54;;;;;;;0.00;0.00;;;;;;;;;;5084029;28;20024;-81
2023/10/17 07:13:27;;;;;;;0.00;0.00;;;;;;;;;;5087286;28;20056;-89
2023/10/17 07:16:03;;;;;;;0.00;0.00;;;;;;;;;;5085520;28;20493;-84
2023/10/17 07:23:46;;;;;;;0.00;0.00;;;;;;;;;;5102452;28;20118;-80
2023/10/17 07:28:56;;;;;;;0.00;0.00;;;;;;;;;;5068926;28;20059;-80
2023/10/17 07:36:43;;;;;;;0.00;0.00;;;;;;;;;;5014384;28;20026;-87
2023/10/17 07:39:26;;;;;;;0.00;0.00;;;;;;;;;;5008427;28;20763;-88
2023/10/17 07:41:53;;;;;;;0.00;0.00;;;;;;;;;;5009714;28;20049;-85
2023/10/17 07:44:27;;;;;;;0.00;0.00;;;;;;;;;;4979524;28;20021;-89
2023/10/17 07:47:41;;;;;;;0.00;0.00;;;;;;;;;;4991532;28;20030;-84
2023/10/17 07:49:41;;;;;;;0.00;0.00;;;;;;;;;;4980574;28;20451;-84
2023/10/17 07:52:12;;;;;;;0.00;0.00;;;;;;;;;;4985447;28;20029;-86
2023/10/17 07:54:45;;;;;;;0.00;0.00;;;;;;;;;;5001179;28;20394;-86
2023/10/17 07:57:17;;;;;;;0.00;0.00;;;;;;;;;;5031682;28;20039;-86
2023/10/17 07:59:57;;;;;;;0.00;0.00;;;;;;;;;;5023306;28;20021;-86
2023/10/17 08:02:23;;;;;;;0.00;0.00;;;;;;;;;;5015242;28;20458;-84
2023/10/17 08:04:53;;;;;;;0.00;0.00;;;;;;;;;;5035917;28;20033;-83
2023/10/17 08:07:20;;;;;;;0.00;0.00;;;;;;;;;;5046159;28;20037;-86
2023/10/17 08:09:58;;;;;;;0.00;0.00;;;;;;;;;;5009622;28;20084;-87
2023/10/17 08:12:25;;;;;;;0.00;0.00;;;;;;;;;;5005427;28;20037;-83
2023/10/17 08:15:05;;;;;;;0.00;0.00;;;;;;;;;;5014359;28;20017;-84
2023/10/17 08:17:34;;;;;;;0.00;0.00;;;;;;;;;;5039189;28;20026;-86
2023/10/17 08:20:09;;;;;;;0.00;0.00;;;;;;;;;;5019312;28;20062;-87
2023/10/17 08:22:55;;;;;;;0.00;0.00;;;;;;;;;;4995979;28;20105;-86
2023/10/17 08:25:29;;;;;;;0.00;0.00;;;;;;;;;;5005944;28;20536;-80
2023/10/17 08:27:56;;;;;;;0.00;0.00;;;;;;;;;;5049310;28;20040;-82
2023/10/17 08:30:26;;;;;;;0.00;0.00;;;;;;;;;;5026246;28;20097;-82
2023/10/17 08:33:11;;;;;;;0.17;0.00;;;;;;;;;;5034934;28;20029;-83
2023/10/17 08:35:40;;;;;;;0.00;0.00;;;;;;;;;;5075909;28;20032;-83
2023/10/17 08:38:14;;;;;;;0.00;0.00;;;;;;;;;;5058586;28;20032;-81
2023/10/17 08:40:40;;;;;;;0.00;0.00;;;;;;;;;;5082627;28;20082;-83
2023/10/17 08:43:22;;;;;;;0.00;0.00;;;;;;;;;;5077084;28;20028;-85
2023/10/17 08:49:17;;;;;;;0.00;0.00;;;;;;;;;;5131560;22;20044;-88
2023/10/17 08:51:42;;;;;;;0.00;0.00;;;;;;;;;;5068436;28;20039;-88
2023/10/17 08:54:08;;;;;;;0.00;0.00;;;;;;;;;;5088784;28;20084;-86
2023/10/17 08:56:38;;;;;;;0.10;0.00;;;;;;;;;;5045100;28;20024;-86
2023/10/17 08:59:03;;;;;;;0.00;0.00;;;;;;;;;;5050196;28;20066;-86
2023/10/17 09:01:37;;;;;;;0.00;0.00;;;;;;;;;;5075139;28;20025;-89
2023/10/17 09:04:19;;;;;;;0.00;0.00;;;;;;;;;;5053567;28;20087;-85
2023/10/17 09:06:48;;;;;;;0.00;0.00;;;;;;;;;;5064499;28;20029;-84
2023/10/17 09:09:18;;;;;;;0.00;0.00;;;;;;;;;;5058474;28;20021;-82
2023/10/17 09:12:01;;;;;;;0.00;0.00;;;;;;;;;;5051446;28;20064;-84
2023/10/17 09:14:29;;;;;;;0.00;0.00;;;;;;;;;;5040662;28;20032;-82
2023/10/17 09:17:48;;;;;;;0.00;0.00;;;;;;;;;;5046887;28;20139;-82
2023/10/17 09:19:52;;;;;;;0.00;0.00;;;;;;;;;;5072301;28;20042;-84
2023/10/17 09:22:38;;;;;;;0.00;0.00;;;;;;;;;;5066737;28;20512;-85
2023/10/17 09:25:15;;;;;;;0.00;0.00;;;;;;;;;;5049383;28;20021;-83
2023/10/17 09:27:50;;;;;;;0.00;0.00;;;;;;;;;;5064630;28;20025;-87
2023/10/17 09:30:26;;;;;;;0.00;0.00;;;;;;;;;;5051417;28;20064;-86
2023/10/17 09:33:01;;;;;;;0.00;0.00;;;;;;;;;;5057928;28;20021;-86
2023/10/17 09:35:31;;;;;;;0.00;0.00;;;;;;;;;;5051901;28;20104;-84
2023/10/17 09:37:58;;;;;;;0.03;0.00;;;;;;;;;;5062809;28;20041;-84
2023/10/17 09:40:29;;;;;;;0.00;0.00;;;;;;;;;;5025548;28;20029;-84
2023/10/17 09:42:56;;;;;;;0.00;0.00;;;;;;;;;;5064395;28;20094;-84
2023/10/17 09:45:28;;;;;;;0.00;0.00;;;;;;;;;;5062757;28;20105;-82
2023/10/17 09:47:57;;;;;;;0.00;0.00;;;;;;;;;;5062647;28;20457;-85
2023/10/17 09:50:23;;;;;;;0.00;0.00;;;;;;;;;;5043603;28;20028;-85
2023/10/17 09:52:49;;;;;;;0.00;0.00;;;;;;;;;;5068220;28;20480;-84
2023/10/17 09:55:17;;;;;;;0.00;0.00;;;;;;;;;;5048027;28;20021;-86
2023/10/17 09:57:50;;;;;;;0.10;0.00;;;;;;;;;;5066805;28;20029;-87
2023/10/17 10:00:40;;;;;;;0.00;0.00;;;;;;;;;;5046507;28;20052;-86
2023/10/17 10:03:06;;;;;;;;;;;;;;;;;;5046054;28;20516;-85
2023/10/17 10:05:32;;;;;;;0.00;0.00;;;;;;;;;;5062084;28;19966;-84
2023/10/17 10:08:04;;;;;;;0.00;0.00;;;;;;;;;;5043943;28;20401;-88
2023/10/17 10:10:42;;;;;;;0.00;0.00;;;;;;;;;;5068330;28;20037;-86
2023/10/17 10:13:13;;;;;;;0.00;0.00;;;;;;;;;;5045466;28;20063;-83
2023/10/17 10:16:07;;;;;;;0.00;0.00;;;;;;;;;;5061157;28;20025;-84
2023/10/17 10:18:33;;;;;;;0.00;0.00;;;;;;;;;;5060152;28;20021;-83
2023/10/17 10:21:18;;;;;;;0.00;0.00;;;;;;;;;;5063775;28;20039;-83
2023/10/17 10:23:47;;;;;;;0.00;0.00;;;;;;;;;;5066138;28;20029;-83
2023/10/17 10:26:19;;;;;;;0.00;0.00;;;;;;;;;;5049616;28;20060;-83
2023/10/17 10:28:46;;;;;;;0.32;0.00;;;;;;;;;;5029548;28;20033;-84
2023/10/17 10:31:21;;;;;;;0.00;0.00;;;;;;;;;;5054892;28;20033;-84
2023/10/17 10:33:56;;;;;;;0.00;0.00;;;;;;;;;;5083252;28;20024;-82
2023/10/17 10:36:23;;;;;;;0.00;0.00;;;;;;;;;;5082935;28;20021;-82
2023/10/17 10:38:49;;;;;;;0.00;0.00;;;;;;;;;;5052508;28;20044;-85
2023/10/17 10:41:18;;;;;;;0.00;0.00;;;;;;;;;;5026899;28;20040;-83
2023/10/17 10:43:44;;;;;;;0.10;0.00;;;;;;;;;;5045525;28;20032;-83
2023/10/17 10:46:10;;;;;;;0.00;0.00;;;;;;;;;;5039464;28;20054;-88
2023/10/17 10:48:38;;;;;;;0.00;0.00;;;;;;;;;;5066199;28;20044;-86
2023/10/17 10:51:04;;;;;;;0.00;0.00;;;;;;;;;;5066334;28;20063;-85
2023/10/17 10:53:31;;;;;;;0.00;0.00;;;;;;;;;;5069584;28;20058;-84
2023/10/17 10:56:02;;;;;;;0.10;0.00;;;;;;;;;;5035437;28;20039;-87
2023/10/17 10:58:33;;;;;;;0.00;0.00;;;;;;;;;;5083647;28;20123;-92
2023/10/17 11:01:00;;;;;;;0.00;0.00;;;;;;;;;;5049307;28;20043;-84
2023/10/17 11:03:26;;;;;;;0.00;0.00;;;;;;;;;;5067244;28;20028;-89
2023/10/17 11:05:55;;;;;;;0.00;0.00;;;;;;;;;;5069020;28;20027;-90
2023/10/17 11:08:22;;;;;;;0.00;0.00;;;;;;;;;;5081769;28;20307;-87
2023/10/17 11:10:48;;;;;;;0.00;0.00;;;;;;;;;;5063241;28;20090;-88
2023/10/17 11:13:15;;;;;;;0.00;0.00;;;;;;;;;;5048246;28;20033;-86
2023/10/17 11:15:46;;;;;;;0.00;0.00;;;;;;;;;;5049281;28;20033;-90
2023/10/17 11:18:20;;;;;;;0.00;0.00;;;;;;;;;;5053731;28;20071;-85
2023/10/17 11:20:50;;;;;;;0.00;0.00;;;;;;;;;;5056369;28;20032;-86
2023/10/17 11:23:17;;;;;;;0.00;0.00;;;;;;;;;;5073325;28;20034;-83
2023/10/17 11:25:45;;;;;;;0.00;0.00;;;;;;;;;;5062242;28;20052;-84
2023/10/17 11:28:16;;;;;;;0.00;0.00;;;;;;;;;;5021812;28;20020;-85
2023/10/17 11:30:48;;;;;;;0.00;0.00;;;;;;;;;;5055290;28;20046;-84
2023/10/17 11:33:18;;;;;;;0.00;0.00;;;;;;;;;;5061459;28;20040;-86
2023/10/17 11:35:47;;;;;;;0.00;0.00;;;;;;;;;;5039573;28;20476;-87
2023/10/17 11:38:33;;;;;;;0.00;0.00;;;;;;;;;;5053169;28;20043;-85
2023/10/17 11:41:02;;;;;;;0.35;0.00;;;;;;;;;;5066800;28;20039;-84
2023/10/17 11:43:34;;;;;;;0.00;0.00;;;;;;;;;;5049405;28;20056;-85
2023/10/17 11:46:00;;;;;;;0.00;0.00;;;;;;;;;;5049384;28;20071;-85
2023/10/17 11:48:39;;;;;;;0.30;0.00;;;;;;;;;;5084952;28;20052;-85
2023/10/17 11:51:18;;;;;;;0.00;0.00;;;;;;;;;;5047608;28;20596;-85
2023/10/17 11:54:05;;;;;;;0.00;0.00;;;;;;;;;;5046081;28;20216;-85
2023/10/17 11:56:39;;;;;;;0.00;0.00;;;;;;;;;;5045950;28;20066;-86
2023/10/17 11:59:08;;;;;;;0.00;0.00;;;;;;;;;;5028870;28;20036;-86
2023/10/17 12:01:33;;;;;;;0.00;0.00;;;;;;;;;;5044673;28;20025;-84
2023/10/17 12:04:05;;;;;;;0.00;0.00;;;;;;;;;;5044950;28;20638;-84
2023/10/17 12:06:31;;;;;;;0.00;0.00;;;;;;;;;;5062893;28;20028;-84
2023/10/17 12:08:56;;;;;;;0.00;0.00;;;;;;;;;;5045718;28;20401;-84
2023/10/17 12:11:24;;;;;;;0.00;0.00;;;;;;;;;;5047171;28;20028;-86
2023/10/17 12:13:51;;;;;;;0.00;0.00;;;;;;;;;;5065384;28;20028;-86
2023/10/17 12:16:20;;;;;;;0.00;0.00;;;;;;;;;;5067767;28;20033;-87
2023/10/17 12:18:46;;;;;;;0.00;0.00;;;;;;;;;;5027411;28;20033;-86
2023/10/17 12:21:14;;;;;;;0.00;0.00;;;;;;;;;;5008215;28;20029;-86
2023/10/17 12:23:42;;;;;;;0.00;0.00;;;;;;;;;;5027168;28;20032;-87
2023/10/17 12:26:14;;;;;;;0.00;0.00;;;;;;;;;;5008950;28;20037;-85
2023/10/17 12:28:43;;;;;;;0.00;0.00;;;;;;;;;;5009360;28;20048;-88
2023/10/17 12:31:09;;;;;;;0.00;0.00;;;;;;;;;;5024061;28;20065;-89
2023/10/17 12:33:36;;;;;;;0.00;0.00;;;;;;;;;;5008595;28;20149;-91
2023/10/17 12:36:05;;;;;;;0.00;0.00;;;;;;;;;;5008777;28;20025;-88
2023/10/17 12:38:34;;;;;;;0.00;0.00;;;;;;;;;;5009728;28;20041;-87
2023/10/17 12:41:03;;;;;;;0.00;0.00;;;;;;;;;;5023882;28;20053;-86
2023/10/17 12:43:29;;;;;;;0.00;0.00;;;;;;;;;;5007289;28;20036;-87
2023/10/17 12:45:55;;;;;;;0.00;0.00;;;;;;;;;;5027295;28;20052;-87
2023/10/17 12:48:21;;;;;;;0.00;0.00;;;;;;;;;;5007815;28;20045;-88
2023/10/17 12:50:47;;;;;;;0.00;0.00;;;;;;;;;;5024153;28;20406;-90
2023/10/17 12:53:13;;;;;;;0.00;0.00;;;;;;;;;;5024389;28;20021;-88
2023/10/17 12:55:39;;;;;;;0.00;0.00;;;;;;;;;;5006376;28;20474;-87
2023/10/17 12:58:10;;;;;;;0.00;0.00;;;;;;;;;;5039829;28;20044;-87
2023/10/17 13:00:38;;;;;;;0.00;0.00;;;;;;;;;;5025342;28;20026;-91
2023/10/17 13:03:03;;;;;;;0.00;0.00;;;;;;;;;;5051782;28;20022;-90
2023/10/17 13:05:30;;;;;;;0.00;0.00;;;;;;;;;;5025127;28;20039;-92
2023/10/17 13:07:56;;;;;;;0.00;0.00;;;;;;;;;;5019088;28;20108;-93
2023/10/17 13:10:21;;;;;;;0.10;0.00;;;;;;;;;;5038463;28;20025;-92
2023/10/17 13:12:47;;;;;;;0.00;0.00;;;;;;;;;;5036492;28;20053;-93
2023/10/17 13:15:15;;;;;;;0.00;0.00;;;;;;;;;;5027516;28;20085;-92
2023/10/17 13:17:41;;;;;;;0.00;0.00;;;;;;;;;;5044686;28;20044;-92
2023/10/17 13:20:10;;;;;;;0.00;0.00;;;;;;;;;;5038592;28;20520;-93
2023/10/17 13:22:46;;;;;;;0.00;0.00;;;;;;;;;;5008621;28;20072;-93
2023/10/17 13:25:12;;;;;;;0.08;0.03;;;;;;;;;;5033278;28;20377;-92
2023/10/17 13:27:38;;;;;;;0.10;0.00;;;;;;;;;;5017273;28;20069;-91
2023/10/17 13:30:07;;;;;;;0.00;0.00;;;;;;;;;;5008501;28;20029;-90
2023/10/17 13:32:32;;;;;;;0.00;0.00;;;;;;;;;;4990584;28;20033;-92
2023/10/17 13:34:58;;;;;;;0.00;0.00;;;;;;;;;;5037036;28;20473;-91
2023/10/17 13:37:26;;;;;;;0.00;0.00;;;;;;;;;;5038893;28;20124;-92
2023/10/17 13:39:51;;;;;;;0.00;0.00;;;;;;;;;;5022743;28;20025;-92
2023/10/17 13:42:17;;;;;;;0.00;0.00;;;;;;;;;;4990174;28;20149;-91
2023/10/17 13:44:43;;;;;;;0.00;0.00;;;;;;;;;;5011537;28;20057;-90
2023/10/17 13:47:09;;;;;;;0.00;0.00;;;;;;;;;;5049124;28;20021;-90
2023/10/17 13:49:34;;;;;;;0.00;0.00;;;;;;;;;;5060405;28;20144;-91
2023/10/17 13:52:00;;;;;;;0.00;0.00;;;;;;;;;;5064718;28;20063;-91
2023/10/17 13:54:27;;;;;;;0.00;0.00;;;;;;;;;;5046934;28;20529;-90
2023/10/17 13:56:54;;;;;;;0.00;0.00;;;;;;;;;;5038446;28;20021;-89
2023/10/17 13:59:23;;;;;;;0.00;0.00;;;;;;;;;;5054319;28;20032;-90
2023/10/17 14:01:52;;;;;;;0.00;0.00;;;;;;;;;;5054336;28;20099;-92
2023/10/17 14:04:18;;;;;;;0.00;0.00;;;;;;;;;;5030606;28;20086;-89
2023/10/17 14:06:44;;;;;;;0.00;0.00;;;;;;;;;;5043744;28;20035;-89
2023/10/17 14:09:17;;;;;;;0.00;0.00;;;;;;;;;;5020380;28;20355;-87
2023/10/17 14:11:43;;;;;;;0.10;0.00;;;;;;;;;;5052410;28;20079;-89
2023/10/17 14:14:10;;;;;;;0.00;0.00;;;;;;;;;;5036094;28;20020;-86
2023/10/17 14:16:40;;;;;;;0.00;0.00;;;;;;;;;;5053334;28;20025;-88
2023/10/17 14:22:10;;;;;;;0.00;0.00;;;;;;;;;;5052460;28;20056;-89
2023/10/17 14:27:24;;;;;;;0.00;0.00;;;;;;;;;;5043555;28;20041;-90
2023/10/17 14:29:50;;;;;;;0.00;0.00;;;;;;;;;;5043180;28;20419;-90
2023/10/17 14:32:17;;;;;;;0.00;0.00;;;;;;;;;;5059102;28;20020;-89
2023/10/17 14:34:43;;;;;;;0.00;0.00;;;;;;;;;;5060127;28;20040;-89
2023/10/17 14:37:08;;;;;;;0.00;0.00;;;;;;;;;;5027149;28;20032;-88
2023/10/17 14:39:34;;;;;;;0.00;0.00;;;;;;;;;;5053612;28;20033;-87
2023/10/17 14:42:00;;;;;;;0.00;0.00;;;;;;;;;;5052733;28;20036;-90
2023/10/17 14:44:29;;;;;;;0.00;0.00;;;;;;;;;;5056698;28;20037;-90
2023/10/17 14:46:58;;;;;;;0.00;0.00;;;;;;;;;;5065770;28;20025;-88
2023/10/17 14:49:26;;;;;;;0.00;0.00;;;;;;;;;;5050187;28;20051;-92
2023/10/17 14:51:55;;;;;;;0.00;0.00;;;;;;;;;;5056071;28;20435;-93
2023/10/17 14:54:21;;;;;;;0.00;0.00;;;;;;;;;;5021081;28;20025;-93
2023/10/17 14:56:47;;;;;;;0.00;0.00;;;;;;;;;;5022083;28;20025;-92
2023/10/17 14:59:13;;;;;;;0.00;0.00;;;;;;;;;;5020976;28;20029;-90
2023/10/17 15:01:40;;;;;;;0.00;0.00;;;;;;;;;;5019804;28;20450;-92
2023/10/17 15:04:06;;;;;;;0.00;0.00;;;;;;;;;;5017986;28;20045;-91
2023/10/17 15:06:31;;;;;;;0.00;0.00;;;;;;;;;;5019366;28;20020;-93
2023/10/17 15:08:58;;;;;;;0.00;0.00;;;;;;;;;;5021538;28;20085;-92
2023/10/17 15:11:23;;;;;;;0.00;0.00;;;;;;;;;;5018169;28;20026;-92
2023/10/17 15:13:49;;;;;;;0.00;0.00;;;;;;;;;;5016383;28;20033;-88
2023/10/17 15:16:15;;;;;;;0.00;0.00;;;;;;;;;;5015863;28;20033;-90
2023/10/17 15:18:41;;;;;;;0.10;0.00;;;;;;;;;;5017545;28;20455;-93
2023/10/17 15:21:13;;;;;;;0.00;0.00;;;;;;;;;;5015846;28;20037;-93
2023/10/17 15:23:42;;;;;;;0.00;0.00;;;;;;;;;;5030336;28;20033;-91
2023/10/17 15:26:10;;;;;;;0.03;0.00;;;;;;;;;;5036881;28;20111;-88
2023/10/17 15:28:35;;;;;;;0.00;0.00;;;;;;;;;;5036451;28;20025;-90
2023/10/17 15:31:02;;;;;;;0.10;0.00;;;;;;;;;;5023028;28;20035;-93
2023/10/17 15:33:28;;;;;;;0.00;0.00;;;;;;;;;;5056251;28;20033;-86
2023/10/17 15:35:53;;;;;;;0.00;0.00;;;;;;;;;;5039236;28;20083;-92
2023/10/17 15:38:24;;;;;;;0.00;0.00;;;;;;;;;;5057317;28;20060;-92
2023/10/17 15:40:52;;;;;;;0.00;0.00;;;;;;;;;;5041409;28;20052;-93
2023/10/17 15:43:17;;;;;;;0.30;0.00;;;;;;;;;;5042702;28;20037;-91
2023/10/17 15:45:56;;;;;;;0.00;0.00;;;;;;;;;;5063626;28;20088;-90
2023/10/17 15:48:23;;;;;;;0.00;0.00;;;;;;;;;;5055159;28;20029;-89
2023/10/17 15:50:54;;;;;;;0.22;0.00;;;;;;;;;;5059920;28;20083;-84
2023/10/17 15:53:20;;;;;;;0.00;0.00;;;;;;;;;;5077958;28;20020;-89
2023/10/17 15:56:05;;;;;;;0.00;0.00;;;;;;;;;;5079909;28;20060;-83
2023/10/17 15:58:31;;;;;;;0.00;0.00;;;;;;;;;;5079891;28;20029;-83
2023/10/17 16:00:57;;;;;;;0.00;0.00;;;;;;;;;;5046602;28;20013;-86
2023/10/17 16:03:23;;;;;;;0.00;0.00;;;;;;;;;;5035012;28;20028;-92
2023/10/17 16:05:52;;;;;;;0.00;0.00;;;;;;;;;;5031956;28;20048;-90
2023/10/17 16:08:18;;;;;;;0.00;0.00;;;;;;;;;;5050067;28;20033;-92
2023/10/17 16:10:44;;;;;;;0.00;0.00;;;;;;;;;;5057149;28;20121;-93
2023/10/17 16:13:11;;;;;;;0.00;0.00;;;;;;;;;;5041020;28;20029;-93
2023/10/17 16:15:37;;;;;;;0.00;0.00;;;;;;;;;;5038953;28;20386;-93
2023/10/17 16:18:03;;;;;;;0.00;0.00;;;;;;;;;;5038940;28;20060;-92
2023/10/17 16:20:28;;;;;;;0.00;0.00;;;;;;;;;;5055234;28;20040;-89
2023/10/17 16:22:55;;;;;;;0.00;0.00;;;;;;;;;;5056527;28;20064;-92
2023/10/17 16:25:24;;;;;;;0.00;0.00;;;;;;;;;;5056682;28;20033;-94
2023/10/17 16:27:50;;;;;;;0.00;0.00;;;;;;;;;;5040954;28;20028;-93
2023/10/17 16:30:15;;;;;;;0.00;0.00;;;;;;;;;;5050691;28;20055;-93
2023/10/17 16:32:41;;;;;;;0.00;0.00;;;;;;;;;;5065234;28;20057;-93
2023/10/17 16:35:07;;;;;;;0.00;0.00;;;;;;;;;;5046880;28;20024;-93
2023/10/17 16:37:34;;;;;;;0.00;0.00;;;;;;;;;;5050165;28;20025;-93
2023/10/17 16:40:00;;;;;;;0.00;0.00;;;;;;;;;;5058023;28;20032;-89
2023/10/17 16:42:26;;;;;;;0.00;0.00;;;;;;;;;;5043678;28;20045;-89
2023/10/17 16:44:52;;;;;;;0.00;0.00;;;;;;;;;;5059133;28;20088;-92
2023/10/17 16:47:19;;;;;;;0.00;0.00;;;;;;;;;;5055914;28;20029;-89
2023/10/17 16:49:47;;;;;;;0.00;0.00;;;;;;;;;;5056389;28;20020;-89
2023/10/17 16:52:13;;;;;;;0.00;0.00;;;;;;;;;;5043541;28;20016;-91
2023/10/17 16:54:39;;;;;;;0.00;0.00;;;;;;;;;;5027350;28;20033;-90
2023/10/17 16:57:07;;;;;;;0.00;0.00;;;;;;;;;;5048861;28;20029;-91
2023/10/17 16:59:33;;;;;;;0.00;0.00;;;;;;;;;;5035013;28;20029;-91
2023/10/17 17:01:59;;;;;;;0.00;0.00;;;;;;;;;;5056979;28;20136;-91
2023/10/17 17:04:25;;;;;;;0.00;0.00;;;;;;;;;;5040862;28;20040;-92
2023/10/17 17:06:51;;;;;;;0.00;0.00;;;;;;;;;;5056780;28;20060;-93
2023/10/17 17:09:20;;;;;;;0.00;0.00;;;;;;;;;;5053583;28;20025;-90
2023/10/17 17:11:46;;;;;;;0.00;0.00;;;;;;;;;;5059219;28;20043;-92